sensor_id;sensor_type;location;lat;lon;timestamp;P1;durP1;ratioP1;P2;durP2;ratioP2
55031;SDS011;40928;51.076;7.950;2023-01-05T00:01:40;15.55;;;2.30;;
55031;SDS011;40928;51.076;7.950;2023-01-05T00:04:09;18.42;;;2.08;;
55031;SDS011;40928;51.076;7.950;2023-01-05T00:06:36;17.40;;;1.90;;
55031;SDS011;40928;51.076;7.950;2023-01-05T00:09:04;15.88;;;1.88;;
55031;SDS011;40928;51.076;7.950;2023-01-05T00:11:37;12.35;;;1.80;;
55031;SDS011;40928;51.076;7.950;2023-01-05T00:14:32;14.70;;;2.38;;
55031;SDS011;40928;51.076;7.950;2023-01-05T00:17:22;16.25;;;2.38;;
55031;SDS011;40928;51.076;7.950;2023-01-05T00:20:16;13.93;;;1.90;;
55031;SDS011;40928;51.076;7.950;2023-01-05T00:23:03;12.18;;;1.63;;
55031;SDS011;40928;51.076;7.950;2023-01-05T00:25:35;21.92;;;2.63;;
55031;SDS011;40928;51.076;7.950;2023-01-05T00:28:05;18.92;;;2.10;;
55031;SDS011;40928;51.076;7.950;2023-01-05T00:30:37;17.83;;;2.35;;
55031;SDS011;40928;51.076;7.950;2023-01-05T00:33:13;19.60;;;2.53;;
55031;SDS011;40928;51.076;7.950;2023-01-05T00:35:44;13.88;;;2.20;;
55031;SDS011;40928;51.076;7.950;2023-01-05T00:38:10;11.77;;;2.22;;
55031;SDS011;40928;51.076;7.950;2023-01-05T00:40:49;13.07;;;3.13;;
55031;SDS011;40928;51.076;7.950;2023-01-05T00:43:15;17.90;;;2.72;;
55031;SDS011;40928;51.076;7.950;2023-01-05T00:45:44;20.77;;;2.60;;
55031;SDS011;40928;51.076;7.950;2023-01-05T00:48:17;17.17;;;2.08;;
55031;SDS011;40928;51.076;7.950;2023-01-05T00:50:50;13.15;;;2.35;;
55031;SDS011;40928;51.076;7.950;2023-01-05T00:53:19;15.38;;;2.65;;
55031;SDS011;40928;51.076;7.950;2023-01-05T00:55:53;17.30;;;2.25;;
55031;SDS011;40928;51.076;7.950;2023-01-05T00:58:24;14.35;;;2.35;;
55031;SDS011;40928;51.076;7.950;2023-01-05T01:00:49;15.98;;;2.22;;
55031;SDS011;40928;51.076;7.950;2023-01-05T01:03:18;10.93;;;2.03;;
55031;SDS011;40928;51.076;7.950;2023-01-05T01:05:44;12.07;;;2.10;;
55031;SDS011;40928;51.076;7.950;2023-01-05T01:08:28;7.80;;;2.70;;
55031;SDS011;40928;51.076;7.950;2023-01-05T01:10:54;15.20;;;3.53;;
55031;SDS011;40928;51.076;7.950;2023-01-05T01:13:23;13.18;;;2.58;;
55031;SDS011;40928;51.076;7.950;2023-01-05T01:15:54;19.98;;;3.35;;
55031;SDS011;40928;51.076;7.950;2023-01-05T01:20:57;21.40;;;2.72;;
55031;SDS011;40928;51.076;7.950;2023-01-05T01:23:23;18.20;;;3.30;;
55031;SDS011;40928;51.076;7.950;2023-01-05T01:25:50;11.80;;;2.22;;
55031;SDS011;40928;51.076;7.950;2023-01-05T01:28:15;13.30;;;2.72;;
55031;SDS011;40928;51.076;7.950;2023-01-05T01:30:45;10.55;;;2.95;;
55031;SDS011;40928;51.076;7.950;2023-01-05T01:33:11;16.80;;;2.42;;
55031;SDS011;40928;51.076;7.950;2023-01-05T01:35:39;17.20;;;3.17;;
55031;SDS011;40928;51.076;7.950;2023-01-05T01:38:12;8.05;;;2.35;;
55031;SDS011;40928;51.076;7.950;2023-01-05T01:40:39;18.42;;;2.55;;
55031;SDS011;40928;51.076;7.950;2023-01-05T01:43:17;18.02;;;3.20;;
55031;SDS011;40928;51.076;7.950;2023-01-05T01:46:07;13.05;;;3.55;;
55031;SDS011;40928;51.076;7.950;2023-01-05T01:48:37;14.30;;;2.92;;
55031;SDS011;40928;51.076;7.950;2023-01-05T01:51:07;14.95;;;2.45;;
55031;SDS011;40928;51.076;7.950;2023-01-05T01:53:50;11.77;;;2.55;;
55031;SDS011;40928;51.076;7.950;2023-01-05T01:56:21;16.48;;;2.80;;
55031;SDS011;40928;51.076;7.950;2023-01-05T01:58:49;12.43;;;2.88;;
55031;SDS011;40928;51.076;7.950;2023-01-05T02:01:16;13.00;;;2.70;;
55031;SDS011;40928;51.076;7.950;2023-01-05T02:03:43;10.65;;;2.53;;
55031;SDS011;40928;51.076;7.950;2023-01-05T02:06:09;17.75;;;2.97;;
55031;SDS011;40928;51.076;7.950;2023-01-05T02:08:36;16.92;;;3.53;;
55031;SDS011;40928;51.076;7.950;2023-01-05T02:17:06;19.67;;;2.60;;
55031;SDS011;40928;51.076;7.950;2023-01-05T02:31:33;14.27;;;2.90;;
55031;SDS011;40928;51.076;7.950;2023-01-05T02:44:45;29.60;;;4.93;;
55031;SDS011;40928;51.076;7.950;2023-01-05T02:49:54;19.60;;;3.25;;
55031;SDS011;40928;51.076;7.950;2023-01-05T02:52:22;20.45;;;3.30;;
55031;SDS011;40928;51.076;7.950;2023-01-05T02:55:01;19.33;;;3.95;;
55031;SDS011;40928;51.076;7.950;2023-01-05T02:57:34;17.38;;;3.20;;
55031;SDS011;40928;51.076;7.950;2023-01-05T03:00:32;13.80;;;3.33;;
55031;SDS011;40928;51.076;7.950;2023-01-05T03:03:29;20.13;;;3.95;;
55031;SDS011;40928;51.076;7.950;2023-01-05T03:06:19;20.98;;;3.45;;
55031;SDS011;40928;51.076;7.950;2023-01-05T03:09:15;17.90;;;2.45;;
55031;SDS011;40928;51.076;7.950;2023-01-05T03:15:09;18.13;;;3.28;;
55031;SDS011;40928;51.076;7.950;2023-01-05T03:17:42;19.90;;;2.80;;
55031;SDS011;40928;51.076;7.950;2023-01-05T03:20:19;16.30;;;2.95;;
55031;SDS011;40928;51.076;7.950;2023-01-05T03:22:54;16.35;;;3.45;;
55031;SDS011;40928;51.076;7.950;2023-01-05T03:25:42;17.65;;;3.35;;
55031;SDS011;40928;51.076;7.950;2023-01-05T03:28:41;20.98;;;2.55;;
55031;SDS011;40928;51.076;7.950;2023-01-05T03:31:55;15.77;;;3.60;;
55031;SDS011;40928;51.076;7.950;2023-01-05T03:34:49;26.55;;;3.22;;
55031;SDS011;40928;51.076;7.950;2023-01-05T03:40:10;16.75;;;2.35;;
55031;SDS011;40928;51.076;7.950;2023-01-05T03:42:44;23.13;;;3.80;;
55031;SDS011;40928;51.076;7.950;2023-01-05T03:45:14;11.40;;;2.80;;
55031;SDS011;40928;51.076;7.950;2023-01-05T03:47:42;26.60;;;3.30;;
55031;SDS011;40928;51.076;7.950;2023-01-05T03:50:09;25.35;;;3.60;;
55031;SDS011;40928;51.076;7.950;2023-01-05T03:52:36;13.73;;;2.95;;
55031;SDS011;40928;51.076;7.950;2023-01-05T03:55:02;21.83;;;3.17;;
55031;SDS011;40928;51.076;7.950;2023-01-05T03:57:29;26.90;;;4.60;;
55031;SDS011;40928;51.076;7.950;2023-01-05T03:59:57;16.88;;;2.97;;
55031;SDS011;40928;51.076;7.950;2023-01-05T04:02:27;15.80;;;3.20;;
55031;SDS011;40928;51.076;7.950;2023-01-05T04:04:54;19.15;;;2.75;;
55031;SDS011;40928;51.076;7.950;2023-01-05T04:07:20;20.10;;;3.28;;
55031;SDS011;40928;51.076;7.950;2023-01-05T04:09:50;16.58;;;2.75;;
55031;SDS011;40928;51.076;7.950;2023-01-05T04:12:18;13.73;;;2.75;;
55031;SDS011;40928;51.076;7.950;2023-01-05T04:14:44;20.70;;;3.03;;
55031;SDS011;40928;51.076;7.950;2023-01-05T04:17:10;17.88;;;3.22;;
55031;SDS011;40928;51.076;7.950;2023-01-05T04:19:37;13.23;;;2.20;;
55031;SDS011;40928;51.076;7.950;2023-01-05T04:22:04;14.20;;;3.40;;
55031;SDS011;40928;51.076;7.950;2023-01-05T04:24:30;15.40;;;2.65;;
55031;SDS011;40928;51.076;7.950;2023-01-05T04:27:01;18.42;;;3.05;;
55031;SDS011;40928;51.076;7.950;2023-01-05T04:29:27;13.07;;;2.80;;
55031;SDS011;40928;51.076;7.950;2023-01-05T04:31:59;24.17;;;2.60;;
55031;SDS011;40928;51.076;7.950;2023-01-05T04:34:28;18.55;;;2.38;;
55031;SDS011;40928;51.076;7.950;2023-01-05T04:36:59;15.50;;;3.13;;
55031;SDS011;40928;51.076;7.950;2023-01-05T04:39:28;19.92;;;2.55;;
55031;SDS011;40928;51.076;7.950;2023-01-05T04:41:58;16.88;;;3.40;;
55031;SDS011;40928;51.076;7.950;2023-01-05T04:44:27;23.27;;;5.63;;
55031;SDS011;40928;51.076;7.950;2023-01-05T04:46:55;14.70;;;2.97;;
55031;SDS011;40928;51.076;7.950;2023-01-05T04:49:21;10.18;;;2.17;;
55031;SDS011;40928;51.076;7.950;2023-01-05T04:51:53;13.68;;;2.55;;
55031;SDS011;40928;51.076;7.950;2023-01-05T04:54:21;13.65;;;2.70;;
55031;SDS011;40928;51.076;7.950;2023-01-05T04:56:50;19.25;;;3.70;;
55031;SDS011;40928;51.076;7.950;2023-01-05T04:59:17;13.13;;;2.78;;
55031;SDS011;40928;51.076;7.950;2023-01-05T05:01:44;13.48;;;2.10;;
55031;SDS011;40928;51.076;7.950;2023-01-05T05:04:11;11.35;;;2.13;;
55031;SDS011;40928;51.076;7.950;2023-01-05T05:06:38;13.00;;;2.55;;
55031;SDS011;40928;51.076;7.950;2023-01-05T05:09:05;11.30;;;2.28;;
55031;SDS011;40928;51.076;7.950;2023-01-05T05:11:31;13.45;;;2.72;;
55031;SDS011;40928;51.076;7.950;2023-01-05T05:14:00;17.13;;;2.75;;
55031;SDS011;40928;51.076;7.950;2023-01-05T05:16:32;12.13;;;2.25;;
55031;SDS011;40928;51.076;7.950;2023-01-05T05:19:05;15.80;;;2.97;;
55031;SDS011;40928;51.076;7.950;2023-01-05T05:21:30;21.25;;;2.80;;
55031;SDS011;40928;51.076;7.950;2023-01-05T05:23:56;10.45;;;2.28;;
55031;SDS011;40928;51.076;7.950;2023-01-05T05:26:22;13.65;;;2.72;;
55031;SDS011;40928;51.076;7.950;2023-01-05T05:28:52;12.88;;;2.38;;
55031;SDS011;40928;51.076;7.950;2023-01-05T05:31:18;13.93;;;2.63;;
55031;SDS011;40928;51.076;7.950;2023-01-05T05:33:45;11.73;;;2.83;;
55031;SDS011;40928;51.076;7.950;2023-01-05T05:36:11;9.85;;;2.20;;
55031;SDS011;40928;51.076;7.950;2023-01-05T05:38:37;11.80;;;2.00;;
55031;SDS011;40928;51.076;7.950;2023-01-05T05:41:03;10.88;;;3.10;;
55031;SDS011;40928;51.076;7.950;2023-01-05T05:43:29;9.38;;;2.97;;
55031;SDS011;40928;51.076;7.950;2023-01-05T05:45:58;13.50;;;2.30;;
55031;SDS011;40928;51.076;7.950;2023-01-05T05:48:42;16.98;;;3.05;;
55031;SDS011;40928;51.076;7.950;2023-01-05T05:51:08;11.15;;;2.50;;
55031;SDS011;40928;51.076;7.950;2023-01-05T05:53:36;11.20;;;2.30;;
55031;SDS011;40928;51.076;7.950;2023-01-05T05:56:02;10.23;;;2.35;;
55031;SDS011;40928;51.076;7.950;2023-01-05T05:58:31;9.50;;;2.45;;
55031;SDS011;40928;51.076;7.950;2023-01-05T06:01:00;13.23;;;2.40;;
55031;SDS011;40928;51.076;7.950;2023-01-05T06:03:29;14.27;;;3.00;;
55031;SDS011;40928;51.076;7.950;2023-01-05T06:05:54;17.30;;;3.00;;
55031;SDS011;40928;51.076;7.950;2023-01-05T06:08:20;12.60;;;3.20;;
55031;SDS011;40928;51.076;7.950;2023-01-05T06:10:51;15.95;;;2.95;;
55031;SDS011;40928;51.076;7.950;2023-01-05T06:13:23;9.32;;;2.45;;
55031;SDS011;40928;51.076;7.950;2023-01-05T06:15:49;16.45;;;2.72;;
55031;SDS011;40928;51.076;7.950;2023-01-05T06:18:18;13.30;;;2.55;;
55031;SDS011;40928;51.076;7.950;2023-01-05T06:20:50;10.07;;;2.88;;
55031;SDS011;40928;51.076;7.950;2023-01-05T06:23:22;7.43;;;2.25;;
55031;SDS011;40928;51.076;7.950;2023-01-05T06:25:51;10.80;;;3.55;;
55031;SDS011;40928;51.076;7.950;2023-01-05T06:28:17;15.25;;;2.72;;
55031;SDS011;40928;51.076;7.950;2023-01-05T06:30:43;13.65;;;2.03;;
55031;SDS011;40928;51.076;7.950;2023-01-05T06:33:12;11.55;;;2.60;;
55031;SDS011;40928;51.076;7.950;2023-01-05T06:35:39;9.75;;;2.10;;
55031;SDS011;40928;51.076;7.950;2023-01-05T06:38:05;15.50;;;3.20;;
55031;SDS011;40928;51.076;7.950;2023-01-05T06:40:31;8.60;;;2.45;;
55031;SDS011;40928;51.076;7.950;2023-01-05T06:42:57;12.05;;;2.65;;
55031;SDS011;40928;51.076;7.950;2023-01-05T06:45:23;14.52;;;2.45;;
55031;SDS011;40928;51.076;7.950;2023-01-05T06:47:54;12.73;;;2.38;;
55031;SDS011;40928;51.076;7.950;2023-01-05T06:50:23;21.13;;;2.85;;
55031;SDS011;40928;51.076;7.950;2023-01-05T06:52:52;13.60;;;2.53;;
55031;SDS011;40928;51.076;7.950;2023-01-05T06:55:17;21.48;;;4.00;;
55031;SDS011;40928;51.076;7.950;2023-01-05T06:57:44;20.02;;;3.35;;
55031;SDS011;40928;51.076;7.950;2023-01-05T07:00:10;15.98;;;2.58;;
55031;SDS011;40928;51.076;7.950;2023-01-05T07:02:45;9.80;;;3.08;;
55031;SDS011;40928;51.076;7.950;2023-01-05T07:05:11;12.18;;;2.85;;
55031;SDS011;40928;51.076;7.950;2023-01-05T07:07:49;16.30;;;3.25;;
55031;SDS011;40928;51.076;7.950;2023-01-05T07:10:15;16.77;;;3.45;;
55031;SDS011;40928;51.076;7.950;2023-01-05T07:12:43;14.73;;;2.97;;
55031;SDS011;40928;51.076;7.950;2023-01-05T07:15:12;15.07;;;3.03;;
55031;SDS011;40928;51.076;7.950;2023-01-05T07:17:47;18.40;;;3.13;;
55031;SDS011;40928;51.076;7.950;2023-01-05T07:20:13;14.00;;;2.97;;
55031;SDS011;40928;51.076;7.950;2023-01-05T07:22:39;12.25;;;3.33;;
55031;SDS011;40928;51.076;7.950;2023-01-05T07:25:06;16.25;;;3.25;;
55031;SDS011;40928;51.076;7.950;2023-01-05T07:27:33;14.27;;;3.25;;
55031;SDS011;40928;51.076;7.950;2023-01-05T07:29:59;22.25;;;3.50;;
55031;SDS011;40928;51.076;7.950;2023-01-05T07:32:25;11.35;;;3.45;;
55031;SDS011;40928;51.076;7.950;2023-01-05T07:34:51;16.52;;;4.05;;
55031;SDS011;40928;51.076;7.950;2023-01-05T07:37:17;15.52;;;2.83;;
55031;SDS011;40928;51.076;7.950;2023-01-05T07:39:46;13.43;;;3.05;;
55031;SDS011;40928;51.076;7.950;2023-01-05T07:42:17;12.38;;;3.55;;
55031;SDS011;40928;51.076;7.950;2023-01-05T07:44:46;13.20;;;2.80;;
55031;SDS011;40928;51.076;7.950;2023-01-05T07:47:13;24.02;;;3.50;;
55031;SDS011;40928;51.076;7.950;2023-01-05T07:49:41;16.95;;;3.05;;
55031;SDS011;40928;51.076;7.950;2023-01-05T07:52:11;14.18;;;2.90;;
55031;SDS011;40928;51.076;7.950;2023-01-05T07:54:48;16.20;;;2.83;;
55031;SDS011;40928;51.076;7.950;2023-01-05T07:57:23;11.18;;;3.03;;
55031;SDS011;40928;51.076;7.950;2023-01-05T07:59:54;15.48;;;2.55;;
55031;SDS011;40928;51.076;7.950;2023-01-05T08:02:22;12.27;;;3.30;;
55031;SDS011;40928;51.076;7.950;2023-01-05T08:05:03;11.57;;;3.90;;
55031;SDS011;40928;51.076;7.950;2023-01-05T08:07:35;11.77;;;2.65;;
55031;SDS011;40928;51.076;7.950;2023-01-05T08:10:02;12.70;;;3.08;;
55031;SDS011;40928;51.076;7.950;2023-01-05T08:12:53;14.10;;;2.90;;
55031;SDS011;40928;51.076;7.950;2023-01-05T08:15:41;21.80;;;2.85;;
55031;SDS011;40928;51.076;7.950;2023-01-05T08:18:08;15.07;;;2.83;;
55031;SDS011;40928;51.076;7.950;2023-01-05T08:20:38;16.30;;;3.80;;
55031;SDS011;40928;51.076;7.950;2023-01-05T08:23:06;18.88;;;3.95;;
55031;SDS011;40928;51.076;7.950;2023-01-05T08:25:33;16.23;;;3.25;;
55031;SDS011;40928;51.076;7.950;2023-01-05T08:27:59;13.25;;;3.63;;
55031;SDS011;40928;51.076;7.950;2023-01-05T08:30:26;23.33;;;3.78;;
55031;SDS011;40928;51.076;7.950;2023-01-05T08:32:56;12.80;;;3.13;;
55031;SDS011;40928;51.076;7.950;2023-01-05T08:35:24;14.77;;;3.13;;
55031;SDS011;40928;51.076;7.950;2023-01-05T08:37:50;19.42;;;3.78;;
55031;SDS011;40928;51.076;7.950;2023-01-05T08:40:17;14.30;;;3.25;;
55031;SDS011;40928;51.076;7.950;2023-01-05T08:42:44;18.20;;;4.35;;
55031;SDS011;40928;51.076;7.950;2023-01-05T08:45:14;21.63;;;3.90;;
55031;SDS011;40928;51.076;7.950;2023-01-05T08:47:43;24.88;;;3.67;;
55031;SDS011;40928;51.076;7.950;2023-01-05T08:50:09;16.15;;;4.22;;
55031;SDS011;40928;51.076;7.950;2023-01-05T08:52:37;19.67;;;3.90;;
55031;SDS011;40928;51.076;7.950;2023-01-05T08:55:04;21.33;;;3.92;;
55031;SDS011;40928;51.076;7.950;2023-01-05T08:57:34;17.33;;;3.85;;
55031;SDS011;40928;51.076;7.950;2023-01-05T09:00:00;16.58;;;3.13;;
55031;SDS011;40928;51.076;7.950;2023-01-05T09:02:26;15.40;;;2.67;;
55031;SDS011;40928;51.076;7.950;2023-01-05T09:04:52;18.83;;;3.38;;
55031;SDS011;40928;51.076;7.950;2023-01-05T09:07:20;22.05;;;3.90;;
55031;SDS011;40928;51.076;7.950;2023-01-05T09:09:48;12.32;;;3.20;;
55031;SDS011;40928;51.076;7.950;2023-01-05T09:12:14;18.45;;;4.10;;
55031;SDS011;40928;51.076;7.950;2023-01-05T09:14:40;16.70;;;3.88;;
55031;SDS011;40928;51.076;7.950;2023-01-05T09:17:06;10.23;;;2.95;;
55031;SDS011;40928;51.076;7.950;2023-01-05T09:19:32;21.95;;;5.45;;
55031;SDS011;40928;51.076;7.950;2023-01-05T09:21:59;25.75;;;3.88;;
55031;SDS011;40928;51.076;7.950;2023-01-05T09:24:27;17.13;;;3.50;;
55031;SDS011;40928;51.076;7.950;2023-01-05T09:26:55;15.60;;;4.15;;
55031;SDS011;40928;51.076;7.950;2023-01-05T09:29:22;23.52;;;3.78;;
55031;SDS011;40928;51.076;7.950;2023-01-05T09:31:50;22.15;;;3.80;;
55031;SDS011;40928;51.076;7.950;2023-01-05T09:34:15;18.63;;;4.10;;
55031;SDS011;40928;51.076;7.950;2023-01-05T09:36:43;18.60;;;4.07;;
55031;SDS011;40928;51.076;7.950;2023-01-05T09:39:12;16.95;;;3.65;;
55031;SDS011;40928;51.076;7.950;2023-01-05T09:44:20;13.73;;;2.80;;
55031;SDS011;40928;51.076;7.950;2023-01-05T09:46:58;25.48;;;3.45;;
55031;SDS011;40928;51.076;7.950;2023-01-05T09:49:29;21.85;;;2.65;;
55031;SDS011;40928;51.076;7.950;2023-01-05T09:52:00;17.23;;;3.70;;
55031;SDS011;40928;51.076;7.950;2023-01-05T09:54:35;12.55;;;3.08;;
55031;SDS011;40928;51.076;7.950;2023-01-05T09:57:04;15.00;;;2.85;;
55031;SDS011;40928;51.076;7.950;2023-01-05T09:59:59;12.30;;;3.03;;
55031;SDS011;40928;51.076;7.950;2023-01-05T10:05:01;12.68;;;3.17;;
55031;SDS011;40928;51.076;7.950;2023-01-05T10:07:43;15.90;;;4.03;;
55031;SDS011;40928;51.076;7.950;2023-01-05T10:13:07;14.98;;;3.45;;
55031;SDS011;40928;51.076;7.950;2023-01-05T10:15:44;15.65;;;3.00;;
55031;SDS011;40928;51.076;7.950;2023-01-05T10:18:48;18.73;;;3.60;;
55031;SDS011;40928;51.076;7.950;2023-01-05T10:21:48;18.75;;;3.38;;
55031;SDS011;40928;51.076;7.950;2023-01-05T10:24:39;17.83;;;3.92;;
55031;SDS011;40928;51.076;7.950;2023-01-05T10:30:20;20.73;;;3.45;;
55031;SDS011;40928;51.076;7.950;2023-01-05T10:32:55;21.45;;;3.72;;
55031;SDS011;40928;51.076;7.950;2023-01-05T10:36:15;23.23;;;3.83;;
55031;SDS011;40928;51.076;7.950;2023-01-05T10:38:56;14.85;;;3.30;;
55031;SDS011;40928;51.076;7.950;2023-01-05T10:47:13;24.02;;;4.97;;
55031;SDS011;40928;51.076;7.950;2023-01-05T10:49:43;23.90;;;3.72;;
55031;SDS011;40928;51.076;7.950;2023-01-05T10:52:12;28.38;;;4.97;;
55031;SDS011;40928;51.076;7.950;2023-01-05T10:55:09;30.80;;;5.97;;
55031;SDS011;40928;51.076;7.950;2023-01-05T10:57:39;25.58;;;4.40;;
55031;SDS011;40928;51.076;7.950;2023-01-05T11:00:16;28.00;;;5.07;;
55031;SDS011;40928;51.076;7.950;2023-01-05T11:05:37;21.65;;;4.55;;
55031;SDS011;40928;51.076;7.950;2023-01-05T11:08:24;23.38;;;5.35;;
55031;SDS011;40928;51.076;7.950;2023-01-05T11:11:00;17.60;;;4.57;;
55031;SDS011;40928;51.076;7.950;2023-01-05T11:13:37;23.97;;;4.43;;
55031;SDS011;40928;51.076;7.950;2023-01-05T11:16:10;21.30;;;4.22;;
55031;SDS011;40928;51.076;7.950;2023-01-05T11:19:00;20.88;;;4.57;;
55031;SDS011;40928;51.076;7.950;2023-01-05T11:26:55;23.80;;;3.75;;
55031;SDS011;40928;51.076;7.950;2023-01-05T11:29:28;24.10;;;5.32;;
55031;SDS011;40928;51.076;7.950;2023-01-05T11:34:45;23.92;;;4.60;;
55031;SDS011;40928;51.076;7.950;2023-01-05T11:37:23;27.30;;;4.20;;
55031;SDS011;40928;51.076;7.950;2023-01-05T11:39:52;24.92;;;4.75;;
55031;SDS011;40928;51.076;7.950;2023-01-05T11:44:52;24.90;;;4.70;;
55031;SDS011;40928;51.076;7.950;2023-01-05T11:47:24;22.40;;;4.18;;
55031;SDS011;40928;51.076;7.950;2023-01-05T11:50:18;17.63;;;4.18;;
55031;SDS011;40928;51.076;7.950;2023-01-05T11:52:50;21.95;;;4.00;;
55031;SDS011;40928;51.076;7.950;2023-01-05T11:58:16;20.65;;;3.92;;
55031;SDS011;40928;51.076;7.950;2023-01-05T12:03:47;26.10;;;5.18;;
55031;SDS011;40928;51.076;7.950;2023-01-05T12:06:44;28.60;;;4.20;;
55031;SDS011;40928;51.076;7.950;2023-01-05T12:09:33;26.33;;;3.30;;
55031;SDS011;40928;51.076;7.950;2023-01-05T12:12:05;25.02;;;4.18;;
55031;SDS011;40928;51.076;7.950;2023-01-05T12:17:38;21.02;;;3.42;;
55031;SDS011;40928;51.076;7.950;2023-01-05T12:23:24;19.20;;;3.75;;
55031;SDS011;40928;51.076;7.950;2023-01-05T12:26:29;21.65;;;4.45;;
55031;SDS011;40928;51.076;7.950;2023-01-05T12:32:19;19.27;;;3.15;;
55031;SDS011;40928;51.076;7.950;2023-01-05T12:40:27;13.80;;;3.45;;
55031;SDS011;40928;51.076;7.950;2023-01-05T12:48:55;20.52;;;4.50;;
55031;SDS011;40928;51.076;7.950;2023-01-05T12:51:28;23.25;;;4.78;;
55031;SDS011;40928;51.076;7.950;2023-01-05T12:54:08;17.15;;;4.30;;
55031;SDS011;40928;51.076;7.950;2023-01-05T12:56:52;15.07;;;4.47;;
55031;SDS011;40928;51.076;7.950;2023-01-05T13:02:02;20.23;;;4.05;;
55031;SDS011;40928;51.076;7.950;2023-01-05T13:04:59;24.70;;;3.70;;
55031;SDS011;40928;51.076;7.950;2023-01-05T13:07:34;21.90;;;3.25;;
55031;SDS011;40928;51.076;7.950;2023-01-05T13:10:05;25.65;;;4.40;;
55031;SDS011;40928;51.076;7.950;2023-01-05T13:12:42;26.75;;;3.85;;
55031;SDS011;40928;51.076;7.950;2023-01-05T13:17:37;17.45;;;3.50;;
55031;SDS011;40928;51.076;7.950;2023-01-05T13:22:45;21.13;;;4.13;;
55031;SDS011;40928;51.076;7.950;2023-01-05T13:25:15;17.10;;;4.03;;
55031;SDS011;40928;51.076;7.950;2023-01-05T13:27:43;23.98;;;5.00;;
55031;SDS011;40928;51.076;7.950;2023-01-05T13:30:20;15.85;;;3.67;;
55031;SDS011;40928;51.076;7.950;2023-01-05T13:40:38;22.10;;;4.18;;
55031;SDS011;40928;51.076;7.950;2023-01-05T13:56:56;21.98;;;4.18;;
55031;SDS011;40928;51.076;7.950;2023-01-05T13:59:24;29.38;;;5.32;;
55031;SDS011;40928;51.076;7.950;2023-01-05T14:01:53;21.27;;;3.65;;
55031;SDS011;40928;51.076;7.950;2023-01-05T14:04:28;17.50;;;4.05;;
55031;SDS011;40928;51.076;7.950;2023-01-05T14:06:56;14.35;;;3.22;;
55031;SDS011;40928;51.076;7.950;2023-01-05T14:09:29;17.77;;;3.35;;
55031;SDS011;40928;51.076;7.950;2023-01-05T14:14:31;9.18;;;2.90;;
55031;SDS011;40928;51.076;7.950;2023-01-05T14:22:53;21.83;;;3.20;;
55031;SDS011;40928;51.076;7.950;2023-01-05T14:30:44;9.93;;;2.63;;
55031;SDS011;40928;51.076;7.950;2023-01-05T14:33:10;14.20;;;2.95;;
55031;SDS011;40928;51.076;7.950;2023-01-05T14:35:36;13.43;;;2.67;;
55031;SDS011;40928;51.076;7.950;2023-01-05T14:40:47;17.33;;;3.15;;
55031;SDS011;40928;51.076;7.950;2023-01-05T14:43:21;10.68;;;2.50;;
55031;SDS011;40928;51.076;7.950;2023-01-05T14:45:55;14.13;;;2.50;;
55031;SDS011;40928;51.076;7.950;2023-01-05T14:48:28;19.73;;;3.50;;
55031;SDS011;40928;51.076;7.950;2023-01-05T14:51:07;15.68;;;3.28;;
55031;SDS011;40928;51.076;7.950;2023-01-05T14:53:38;14.55;;;3.20;;
55031;SDS011;40928;51.076;7.950;2023-01-05T15:01:11;17.20;;;3.30;;
55031;SDS011;40928;51.076;7.950;2023-01-05T15:03:49;15.55;;;3.85;;
55031;SDS011;40928;51.076;7.950;2023-01-05T15:11:36;9.65;;;3.67;;
55031;SDS011;40928;51.076;7.950;2023-01-05T15:28:04;15.95;;;3.08;;
55031;SDS011;40928;51.076;7.950;2023-01-05T15:33:49;19.92;;;4.20;;
55031;SDS011;40928;51.076;7.950;2023-01-05T15:37:01;21.95;;;3.88;;
55031;SDS011;40928;51.076;7.950;2023-01-05T15:39:23;14.52;;;3.28;;
55031;SDS011;40928;51.076;7.950;2023-01-05T15:41:55;14.05;;;3.72;;
55031;SDS011;40928;51.076;7.950;2023-01-05T15:44:24;18.63;;;3.22;;
55031;SDS011;40928;51.076;7.950;2023-01-05T15:46:54;18.95;;;3.33;;
55031;SDS011;40928;51.076;7.950;2023-01-05T15:49:24;14.75;;;3.15;;
55031;SDS011;40928;51.076;7.950;2023-01-05T15:51:54;19.40;;;3.78;;
55031;SDS011;40928;51.076;7.950;2023-01-05T15:54:27;17.63;;;3.15;;
55031;SDS011;40928;51.076;7.950;2023-01-05T15:56:55;16.92;;;2.35;;
55031;SDS011;40928;51.076;7.950;2023-01-05T16:01:49;20.40;;;4.40;;
55031;SDS011;40928;51.076;7.950;2023-01-05T16:04:15;14.77;;;3.83;;
55031;SDS011;40928;51.076;7.950;2023-01-05T16:06:45;23.23;;;5.55;;
55031;SDS011;40928;51.076;7.950;2023-01-05T16:09:19;14.35;;;4.43;;
55031;SDS011;40928;51.076;7.950;2023-01-05T16:11:48;16.00;;;3.80;;
55031;SDS011;40928;51.076;7.950;2023-01-05T16:14:25;18.17;;;4.55;;
55031;SDS011;40928;51.076;7.950;2023-01-05T16:17:09;18.63;;;4.85;;
55031;SDS011;40928;51.076;7.950;2023-01-05T16:19:49;19.30;;;4.38;;
55031;SDS011;40928;51.076;7.950;2023-01-05T16:22:25;23.58;;;5.07;;
55031;SDS011;40928;51.076;7.950;2023-01-05T16:25:02;16.55;;;4.05;;
55031;SDS011;40928;51.076;7.950;2023-01-05T16:27:51;18.60;;;4.35;;
55031;SDS011;40928;51.076;7.950;2023-01-05T16:40:36;19.33;;;4.22;;
55031;SDS011;40928;51.076;7.950;2023-01-05T16:46:21;15.05;;;3.15;;
55031;SDS011;40928;51.076;7.950;2023-01-05T16:48:59;24.10;;;3.83;;
55031;SDS011;40928;51.076;7.950;2023-01-05T16:54:20;29.90;;;5.18;;
55031;SDS011;40928;51.076;7.950;2023-01-05T16:56:58;20.98;;;3.53;;
55031;SDS011;40928;51.076;7.950;2023-01-05T17:01:59;19.98;;;3.00;;
55031;SDS011;40928;51.076;7.950;2023-01-05T17:04:25;31.55;;;4.90;;
55031;SDS011;40928;51.076;7.950;2023-01-05T17:11:52;32.67;;;5.28;;
55031;SDS011;40928;51.076;7.950;2023-01-05T17:14:18;18.63;;;4.00;;
55031;SDS011;40928;51.076;7.950;2023-01-05T17:16:47;25.60;;;5.38;;
55031;SDS011;40928;51.076;7.950;2023-01-05T17:19:17;17.80;;;3.80;;
55031;SDS011;40928;51.076;7.950;2023-01-05T17:21:48;20.48;;;4.18;;
55031;SDS011;40928;51.076;7.950;2023-01-05T17:24:17;29.70;;;4.75;;
55031;SDS011;40928;51.076;7.950;2023-01-05T17:26:43;24.70;;;5.30;;
55031;SDS011;40928;51.076;7.950;2023-01-05T17:29:09;29.17;;;5.20;;
55031;SDS011;40928;51.076;7.950;2023-01-05T17:31:42;30.40;;;5.00;;
55031;SDS011;40928;51.076;7.950;2023-01-05T17:34:07;28.77;;;5.70;;
55031;SDS011;40928;51.076;7.950;2023-01-05T17:36:33;22.45;;;5.15;;
55031;SDS011;40928;51.076;7.950;2023-01-05T17:39:00;16.33;;;4.38;;
55031;SDS011;40928;51.076;7.950;2023-01-05T17:41:26;24.00;;;5.50;;
55031;SDS011;40928;51.076;7.950;2023-01-05T17:43:51;18.17;;;4.43;;
55031;SDS011;40928;51.076;7.950;2023-01-05T17:46:18;19.73;;;3.80;;
55031;SDS011;40928;51.076;7.950;2023-01-05T17:48:46;22.77;;;4.45;;
55031;SDS011;40928;51.076;7.950;2023-01-05T17:51:12;23.70;;;5.40;;
55031;SDS011;40928;51.076;7.950;2023-01-05T17:53:38;30.95;;;4.82;;
55031;SDS011;40928;51.076;7.950;2023-01-05T17:56:05;19.45;;;3.90;;
55031;SDS011;40928;51.076;7.950;2023-01-05T17:58:32;19.83;;;4.30;;
55031;SDS011;40928;51.076;7.950;2023-01-05T18:00:57;28.33;;;4.03;;
55031;SDS011;40928;51.076;7.950;2023-01-05T18:03:23;23.40;;;3.78;;
55031;SDS011;40928;51.076;7.950;2023-01-05T18:05:50;21.00;;;3.22;;
55031;SDS011;40928;51.076;7.950;2023-01-05T18:08:20;21.50;;;3.72;;
55031;SDS011;40928;51.076;7.950;2023-01-05T18:10:46;16.73;;;2.92;;
55031;SDS011;40928;51.076;7.950;2023-01-05T18:13:12;19.38;;;3.67;;
55031;SDS011;40928;51.076;7.950;2023-01-05T18:15:42;16.25;;;2.88;;
55031;SDS011;40928;51.076;7.950;2023-01-05T18:18:08;19.23;;;2.97;;
55031;SDS011;40928;51.076;7.950;2023-01-05T18:20:34;20.77;;;3.70;;